Time;durP1;ratioP1;P1;durP2;ratioP2;P2;SDS_P1;SDS_P2;PMS_P1;PMS_P2;Temp;Humidity;BMP_temperature;BMP_pressure;BME280_temperature;BME280_humidity;BME280_pressure;Samples;Min_cycle;Max_cycle;Signal;HPM_P1;HPM_P2
2024/01/19 00:01:28;;;;;;;24.10;15.53;;;3.80;99.90;;;;;;4890538;29;20779;-67
2024/01/19 00:03:54;;;;;;;24.13;14.80;;;3.70;99.90;;;;;;4892263;29;20187;-67
2024/01/19 00:06:20;;;;;;;21.70;14.73;;;3.60;99.90;;;;;;4894567;29;20179;-67
2024/01/19 00:08:45;;;;;;;26.87;15.93;;;3.60;99.90;;;;;;4891769;29;20199;-66
2024/01/19 00:11:15;;;;;;;25.73;15.20;;;3.50;99.90;;;;;;4894900;29;20187;-66
2024/01/19 00:13:44;;;;;;;23.67;16.17;;;3.40;99.90;;;;;;4883196;29;20180;-66
2024/01/19 00:16:10;;;;;;;22.35;13.85;;;3.40;99.90;;;;;;4887237;29;20272;-66
2024/01/19 00:18:36;;;;;;;25.57;15.40;;;3.30;99.90;;;;;;4879729;29;20260;-66
2024/01/19 00:21:02;;;;;;;21.10;15.23;;;3.30;99.90;;;;;;4869788;29;20398;-66
2024/01/19 00:23:27;;;;;;;25.87;15.20;;;3.20;99.90;;;;;;4886989;29;20775;-66
2024/01/19 00:25:53;;;;;;;22.53;15.47;;;3.20;99.90;;;;;;4882255;29;20491;-66
2024/01/19 00:28:19;;;;;;;28.10;15.70;;;3.20;99.90;;;;;;4890304;29;20249;-68
2024/01/19 00:30:45;;;;;;;24.90;15.87;;;3.30;99.90;;;;;;4894436;29;20187;-67
2024/01/19 00:33:10;;;;;;;27.17;16.00;;;3.30;99.90;;;;;;4893498;29;20187;-66
2024/01/19 00:35:36;;;;;;;25.50;15.00;;;3.20;99.90;;;;;;4887656;29;20438;-66
2024/01/19 00:38:03;;;;;;;28.30;16.20;;;3.20;99.90;;;;;;4872272;29;20427;-66
2024/01/19 00:40:29;;;;;;;21.23;15.30;;;3.20;99.90;;;;;;4886785;29;20594;-67
2024/01/19 00:42:54;;;;;;;24.20;15.70;;;3.20;99.90;;;;;;4881241;29;20248;-66
2024/01/19 00:45:20;;;;;;;31.10;15.00;;;3.20;99.90;;;;;;4888447;29;20505;-68
2024/01/19 00:47:46;;;;;;;31.83;15.93;;;3.20;99.90;;;;;;4895941;29;20206;-67
2024/01/19 00:50:13;;;;;;;31.50;17.07;;;3.20;99.90;;;;;;4868728;29;20182;-66
2024/01/19 00:52:39;;;;;;;27.27;16.45;;;3.20;99.90;;;;;;4896356;29;20367;-66
2024/01/19 00:55:05;;;;;;;27.70;16.40;;;3.20;99.90;;;;;;4890017;29;20672;-66
2024/01/19 00:57:32;;;;;;;27.33;15.82;;;3.20;99.90;;;;;;4882756;29;20511;-66
2024/01/19 00:59:57;;;;;;;28.83;15.20;;;3.20;99.90;;;;;;4883457;29;20187;-66
2024/01/19 01:02:27;;;;;;;29.07;16.13;;;3.20;99.90;;;;;;4864218;29;20235;-66
2024/01/19 01:04:56;;;;;;;29.05;16.83;;;3.10;99.90;;;;;;4891054;29;20228;-66
2024/01/19 01:07:23;;;;;;;27.95;16.33;;;3.20;99.90;;;;;;4893484;29;20224;-69
2024/01/19 01:09:48;;;;;;;27.48;15.52;;;3.20;99.90;;;;;;4894369;29;20552;-66
2024/01/19 01:12:14;;;;;;;26.23;16.27;;;3.20;99.90;;;;;;4887815;29;20195;-66
2024/01/19 01:14:40;;;;;;;25.65;16.35;;;3.20;99.90;;;;;;4880989;29;20271;-66
2024/01/19 01:17:06;;;;;;;32.73;17.73;;;3.20;99.90;;;;;;4890099;29;20581;-66
2024/01/19 01:19:32;;;;;;;29.00;17.30;;;3.20;99.90;;;;;;4885523;29;20195;-66
2024/01/19 01:21:58;;;;;;;24.50;14.50;;;3.20;99.90;;;;;;4887422;29;20236;-66
2024/01/19 01:24:24;;;;;;;27.65;14.90;;;3.20;99.90;;;;;;4865674;29;20184;-68
2024/01/19 01:26:50;;;;;;;27.85;15.85;;;3.20;99.90;;;;;;4884613;29;20346;-66
2024/01/19 01:29:16;;;;;;;34.97;16.47;;;3.20;99.90;;;;;;4892417;29;20798;-66
2024/01/19 01:31:42;;;;;;;28.48;16.20;;;3.10;99.90;;;;;;4893162;29;20506;-66
2024/01/19 01:34:08;;;;;;;31.10;15.97;;;3.30;99.90;;;;;;4891617;29;20266;-67
2024/01/19 01:36:34;;;;;;;24.75;14.68;;;3.20;99.90;;;;;;4880229;29;20619;-66
2024/01/19 01:39:00;;;;;;;24.77;14.40;;;3.20;99.90;;;;;;4885955;29;20210;-66
2024/01/19 01:41:25;;;;;;;27.17;15.53;;;3.30;99.90;;;;;;4868139;29;20444;-67
2024/01/19 01:43:51;;;;;;;28.43;15.60;;;3.30;99.90;;;;;;4891971;29;20222;-66
2024/01/19 01:46:17;;;;;;;26.77;15.97;;;3.30;99.90;;;;;;4879419;29;20427;-66
2024/01/19 01:48:43;;;;;;;24.07;15.87;;;3.30;99.90;;;;;;4895785;29;20566;-66
2024/01/19 01:51:09;;;;;;;28.55;16.63;;;3.30;99.90;;;;;;4872141;29;20552;-66
2024/01/19 01:53:35;;;;;;;27.48;16.55;;;3.30;99.90;;;;;;4874691;29;20180;-67
2024/01/19 01:56:05;;;;;;;26.88;15.88;;;3.40;99.90;;;;;;4878297;29;20195;-67
2024/01/19 01:58:31;;;;;;;25.77;14.07;;;3.30;99.90;;;;;;4869901;29;20210;-67
2024/01/19 02:00:58;;;;;;;25.08;14.88;;;3.40;99.90;;;;;;4891822;29;20180;-66
2024/01/19 02:03:23;;;;;;;23.52;13.95;;;3.40;99.90;;;;;;4884126;29;20541;-68
2024/01/19 02:05:49;;;;;;;24.83;15.40;;;3.30;99.90;;;;;;4890447;29;20182;-66
2024/01/19 02:08:15;;;;;;;25.17;14.80;;;3.20;99.90;;;;;;4874177;29;20214;-66
2024/01/19 02:10:41;;;;;;;24.13;13.77;;;3.20;99.90;;;;;;4860200;29;20271;-66
2024/01/19 02:13:07;;;;;;;25.77;14.80;;;3.20;99.90;;;;;;4889721;29;20214;-66
2024/01/19 02:15:35;;;;;;;25.63;14.27;;;3.10;99.90;;;;;;4884162;29;20427;-66
2024/01/19 02:18:01;;;;;;;21.00;13.05;;;3.10;99.90;;;;;;4891894;29;20179;-66
2024/01/19 02:20:27;;;;;;;22.80;14.20;;;3.00;99.90;;;;;;4869940;29;20617;-68
2024/01/19 02:22:54;;;;;;;24.90;14.77;;;3.00;99.90;;;;;;4863979;29;20305;-67
2024/01/19 02:25:20;;;;;;;26.83;15.00;;;3.10;99.90;;;;;;4894102;29;20197;-67
2024/01/19 02:27:46;;;;;;;20.00;13.45;;;3.00;99.90;;;;;;4867024;29;20352;-66
2024/01/19 02:30:12;;;;;;;25.70;14.43;;;3.00;99.90;;;;;;4894541;29;20601;-66
2024/01/19 02:32:38;;;;;;;20.23;12.70;;;3.00;99.90;;;;;;4894211;29;20184;-67
2024/01/19 02:35:04;;;;;;;20.20;14.33;;;3.20;99.90;;;;;;4890186;29;20323;-66
2024/01/19 02:37:30;;;;;;;26.27;14.23;;;3.10;99.90;;;;;;4861832;29;20462;-66
2024/01/19 02:39:56;;;;;;;27.47;13.77;;;3.20;99.90;;;;;;4885736;29;20180;-67
2024/01/19 02:42:22;;;;;;;22.70;13.30;;;3.20;99.90;;;;;;4892933;29;20712;-66
2024/01/19 02:44:47;;;;;;;19.77;12.80;;;3.20;99.90;;;;;;4882383;29;20264;-66
2024/01/19 02:47:13;;;;;;;20.30;14.27;;;3.30;99.90;;;;;;4878330;29;20238;-66
2024/01/19 02:49:39;;;;;;;21.13;12.80;;;3.30;99.90;;;;;;4894661;29;20217;-66
2024/01/19 02:52:05;;;;;;;18.20;12.10;;;3.30;99.90;;;;;;4882222;29;20191;-66
2024/01/19 02:54:31;;;;;;;20.80;12.93;;;3.40;99.90;;;;;;4867613;29;20183;-66
2024/01/19 02:56:56;;;;;;;18.13;12.70;;;3.40;99.90;;;;;;4893836;29;20229;-66
2024/01/19 02:59:22;;;;;;;17.03;11.83;;;3.40;99.90;;;;;;4872049;29;20411;-67
2024/01/19 03:01:48;;;;;;;17.77;13.30;;;3.40;99.90;;;;;;4896216;29;20179;-66
2024/01/19 03:04:14;;;;;;;21.70;13.37;;;3.40;99.90;;;;;;4884824;29;20235;-66
2024/01/19 03:06:39;;;;;;;20.77;12.60;;;3.40;99.90;;;;;;4893716;29;20190;-66
2024/01/19 03:09:05;;;;;;;18.10;13.47;;;3.40;99.90;;;;;;4896236;29;20644;-66
2024/01/19 03:11:31;;;;;;;18.00;12.20;;;3.40;99.90;;;;;;4871436;29;20184;-67
2024/01/19 03:13:56;;;;;;;19.60;13.23;;;3.40;99.90;;;;;;4878054;29;20542;-66
2024/01/19 03:16:22;;;;;;;16.57;12.50;;;3.40;99.90;;;;;;4883211;29;20179;-66
2024/01/19 03:18:48;;;;;;;17.30;12.50;;;3.50;99.90;;;;;;4879383;29;20184;-67
2024/01/19 03:21:15;;;;;;;18.27;13.50;;;3.40;99.90;;;;;;4892915;29;20502;-68
2024/01/19 03:23:41;;;;;;;21.98;13.02;;;3.40;99.90;;;;;;4877760;29;20191;-66
2024/01/19 03:26:07;;;;;;;19.70;14.10;;;3.40;99.90;;;;;;4892681;29;20190;-67
2024/01/19 03:28:32;;;;;;;16.43;12.07;;;3.40;99.90;;;;;;4863953;29;20298;-67
2024/01/19 03:30:58;;;;;;;18.30;13.23;;;3.40;99.90;;;;;;4883666;29;20188;-66
2024/01/19 03:33:24;;;;;;;19.87;12.87;;;3.30;99.90;;;;;;4890789;29;20201;-66
2024/01/19 03:35:49;;;;;;;17.13;12.90;;;3.30;99.90;;;;;;4870496;29;20183;-66
2024/01/19 03:38:15;;;;;;;18.17;12.33;;;3.40;99.90;;;;;;4890166;29;20187;-66
2024/01/19 03:40:41;;;;;;;24.80;14.07;;;3.30;99.90;;;;;;4881700;29;20187;-66
2024/01/19 03:43:07;;;;;;;25.07;15.00;;;3.30;99.90;;;;;;4882225;29;20771;-66
2024/01/19 03:45:33;;;;;;;17.20;13.30;;;3.30;99.90;;;;;;4880597;29;20518;-67
2024/01/19 03:47:59;;;;;;;22.87;14.57;;;3.30;99.90;;;;;;4880722;29;20668;-66
2024/01/19 03:50:24;;;;;;;20.40;13.80;;;3.30;99.90;;;;;;4893610;29;20551;-66
2024/01/19 03:52:50;;;;;;;20.30;15.50;;;3.30;99.90;;;;;;4893545;29;20264;-68
2024/01/19 03:55:16;;;;;;;23.20;15.10;;;3.30;99.90;;;;;;4883071;29;20192;-66
2024/01/19 03:57:42;;;;;;;20.83;14.00;;;3.30;99.90;;;;;;4881276;29;20234;-66
2024/01/19 04:00:08;;;;;;;24.67;16.73;;;3.40;99.90;;;;;;4887238;29;20534;-66
2024/01/19 04:02:35;;;;;;;24.25;16.52;;;3.30;99.90;;;;;;4881017;29;20187;-67
2024/01/19 04:05:01;;;;;;;22.83;16.17;;;3.40;99.90;;;;;;4894170;29;20183;-66
2024/01/19 04:07:27;;;;;;;25.38;15.05;;;3.40;99.90;;;;;;4897387;29;20207;-66
2024/01/19 04:09:54;;;;;;;22.17;15.23;;;3.50;99.90;;;;;;4884014;29;20375;-66
2024/01/19 04:12:19;;;;;;;20.95;15.10;;;3.50;99.90;;;;;;4880908;29;20176;-66
2024/01/19 04:14:45;;;;;;;21.50;15.97;;;3.50;99.90;;;;;;4880434;29;20179;-67
2024/01/19 04:17:12;;;;;;;22.75;17.08;;;3.50;99.90;;;;;;4864814;29;20407;-66
2024/01/19 04:19:38;;;;;;;19.90;14.38;;;3.60;99.90;;;;;;4880887;29;20223;-67
2024/01/19 04:22:04;;;;;;;24.75;15.88;;;3.50;99.90;;;;;;4880429;29;20550;-66
2024/01/19 04:24:30;;;;;;;26.42;16.08;;;3.50;99.90;;;;;;4898780;29;20194;-68
2024/01/19 04:26:56;;;;;;;20.97;15.67;;;3.50;99.90;;;;;;4881621;29;20744;-66
2024/01/19 04:29:22;;;;;;;25.73;16.03;;;3.60;99.90;;;;;;4896228;29;20201;-66
2024/01/19 04:31:48;;;;;;;23.95;15.45;;;3.60;99.90;;;;;;4899229;29;20566;-66
2024/01/19 04:34:14;;;;;;;20.65;14.73;;;3.60;99.90;;;;;;4881746;29;20551;-66
2024/01/19 04:36:40;;;;;;;25.70;15.40;;;3.60;99.90;;;;;;4884158;29;20218;-66
2024/01/19 04:39:06;;;;;;;23.60;15.30;;;3.60;99.90;;;;;;4884813;29;20180;-66
2024/01/19 04:41:34;;;;;;;26.13;17.00;;;3.70;99.90;;;;;;4893144;29;20270;-68
2024/01/19 04:44:00;;;;;;;28.17;16.25;;;3.70;99.90;;;;;;4887520;29;20192;-66
2024/01/19 04:46:25;;;;;;;25.93;14.20;;;3.70;99.90;;;;;;4889900;29;20620;-66
2024/01/19 04:48:51;;;;;;;21.13;13.57;;;3.70;99.90;;;;;;4897124;29;20223;-66
2024/01/19 04:51:17;;;;;;;23.97;15.50;;;3.80;99.90;;;;;;4891576;29;20186;-66
2024/01/19 04:53:43;;;;;;;24.40;13.60;;;3.70;99.90;;;;;;4895654;29;20182;-66
2024/01/19 04:56:08;;;;;;;22.97;14.77;;;3.70;99.90;;;;;;4869533;29;20184;-66
2024/01/19 04:58:38;;;;;;;26.43;15.87;;;3.80;99.90;;;;;;4888270;29;20184;-67
2024/01/19 05:01:04;;;;;;;23.50;13.73;;;3.80;99.90;;;;;;4890536;29;20180;-66
2024/01/19 05:03:30;;;;;;;24.02;14.23;;;3.80;99.90;;;;;;4880155;29;20184;-66
2024/01/19 05:05:56;;;;;;;26.60;14.00;;;3.80;99.90;;;;;;4879372;29;20200;-66
2024/01/19 05:08:22;;;;;;;27.00;14.50;;;3.90;99.90;;;;;;4894897;29;20330;-66
2024/01/19 05:10:48;;;;;;;26.43;14.83;;;3.90;99.90;;;;;;4898043;29;20414;-66
2024/01/19 05:13:13;;;;;;;28.00;15.40;;;3.80;99.90;;;;;;4898193;29;20901;-66
2024/01/19 05:15:39;;;;;;;26.20;14.10;;;3.80;99.90;;;;;;4880663;29;20179;-66
2024/01/19 05:18:05;;;;;;;20.35;13.07;;;3.90;99.90;;;;;;4881321;29;20246;-66
2024/01/19 05:20:31;;;;;;;24.87;13.40;;;3.80;99.90;;;;;;4896194;29;20203;-66
2024/01/19 05:22:57;;;;;;;27.45;13.70;;;3.80;99.90;;;;;;4881756;29;20256;-66
2024/01/19 05:25:23;;;;;;;27.67;15.23;;;3.80;99.90;;;;;;4896519;29;20199;-66
2024/01/19 05:27:53;;;;;;;24.13;14.20;;;3.90;99.90;;;;;;4880623;29;20456;-66
2024/01/19 05:30:23;;;;;;;22.60;13.27;;;3.70;99.90;;;;;;4879588;29;20168;-66
2024/01/19 05:32:49;;;;;;;27.63;14.07;;;3.70;99.90;;;;;;4866118;29;20184;-66
2024/01/19 05:35:15;;;;;;;19.23;12.87;;;3.70;99.90;;;;;;4881718;29;20179;-67
2024/01/19 05:37:41;;;;;;;23.87;15.67;;;3.70;99.90;;;;;;4895428;29;20183;-67
2024/01/19 05:40:07;;;;;;;21.00;12.30;;;3.70;99.90;;;;;;4891272;29;20950;-67
2024/01/19 05:42:34;;;;;;;23.30;13.20;;;3.70;99.90;;;;;;4880850;29;20233;-67
2024/01/19 05:44:59;;;;;;;23.60;13.38;;;3.80;99.90;;;;;;4896517;29;20271;-66
2024/01/19 05:47:25;;;;;;;25.73;13.03;;;3.70;99.90;;;;;;4895850;29;20294;-67
2024/01/19 05:49:51;;;;;;;25.23;13.50;;;3.80;99.90;;;;;;4897100;29;20565;-67
2024/01/19 05:52:18;;;;;;;23.07;13.63;;;3.80;99.90;;;;;;4882850;29;20420;-67
2024/01/19 05:54:44;;;;;;;18.83;11.85;;;3.80;99.90;;;;;;4869371;29;20279;-67
2024/01/19 05:57:10;;;;;;;25.20;13.47;;;3.90;99.90;;;;;;4879898;29;20736;-67
2024/01/19 05:59:38;;;;;;;24.33;12.27;;;3.90;99.90;;;;;;4889786;29;20285;-68
2024/01/19 06:02:05;;;;;;;22.95;12.38;;;3.80;99.90;;;;;;4886260;29;20270;-67
2024/01/19 06:04:37;;;;;;;20.13;12.75;;;3.80;99.90;;;;;;4897620;29;20186;-67
2024/01/19 06:07:03;;;;;;;25.08;12.98;;;3.80;99.90;;;;;;4889917;29;20230;-67
2024/01/19 06:09:29;;;;;;;22.15;12.80;;;3.80;99.90;;;;;;4880468;29;20679;-67
2024/01/19 06:11:55;;;;;;;19.58;13.13;;;3.80;99.90;;;;;;4896979;29;20193;-66
2024/01/19 06:14:20;;;;;;;19.13;11.87;;;3.90;99.90;;;;;;4879972;29;20275;-67
2024/01/19 06:16:46;;;;;;;22.60;14.17;;;3.90;99.90;;;;;;4885398;29;20183;-67
2024/01/19 06:19:12;;;;;;;22.80;12.40;;;3.80;99.90;;;;;;4879145;29;20428;-66
2024/01/19 06:21:38;;;;;;;24.55;13.50;;;3.90;99.90;;;;;;4869398;29;20952;-68
2024/01/19 06:24:04;;;;;;;21.93;12.40;;;3.90;99.90;;;;;;4885552;29;20187;-67
2024/01/19 06:26:32;;;;;;;19.70;11.90;;;3.90;99.90;;;;;;4890423;29;20659;-67
2024/01/19 06:28:58;;;;;;;19.10;12.63;;;3.90;99.90;;;;;;4879844;29;20789;-67
2024/01/19 06:31:24;;;;;;;24.33;12.15;;;3.90;99.90;;;;;;4886126;29;20198;-67
2024/01/19 06:33:50;;;;;;;22.80;12.40;;;3.90;99.90;;;;;;4863658;29;20187;-67
2024/01/19 06:36:15;;;;;;;20.37;12.20;;;4.00;99.90;;;;;;4883946;29;20333;-67
2024/01/19 06:38:41;;;;;;;20.33;12.10;;;3.90;99.90;;;;;;4892557;29;20761;-68
2024/01/19 06:41:07;;;;;;;20.97;12.53;;;3.90;99.90;;;;;;4891500;29;20180;-66
2024/01/19 06:43:33;;;;;;;28.47;13.60;;;3.90;99.90;;;;;;4869853;29;20246;-67
2024/01/19 06:45:59;;;;;;;23.70;13.15;;;3.90;99.90;;;;;;4894382;29;20190;-67
2024/01/19 06:48:25;;;;;;;19.47;12.17;;;3.90;99.90;;;;;;4878379;29;20218;-67
2024/01/19 06:50:50;;;;;;;21.23;13.70;;;3.90;99.90;;;;;;4896241;29;20398;-67
2024/01/19 06:53:16;;;;;;;21.50;12.47;;;4.00;99.90;;;;;;4876613;29;20265;-67
2024/01/19 06:55:42;;;;;;;24.87;15.40;;;4.00;99.90;;;;;;4877385;29;20441;-69
2024/01/19 06:58:08;;;;;;;20.80;12.47;;;4.00;99.90;;;;;;4885152;29;20218;-66
2024/01/19 07:00:33;;;;;;;20.10;12.90;;;4.00;99.90;;;;;;4879764;29;20540;-66
2024/01/19 07:02:59;;;;;;;20.90;12.93;;;4.00;99.90;;;;;;4890114;29;20459;-67
2024/01/19 07:05:26;;;;;;;26.92;16.83;;;4.10;99.90;;;;;;4887361;29;20240;-66
2024/01/19 07:07:51;;;;;;;18.65;12.60;;;4.10;99.90;;;;;;4879298;29;20203;-67
2024/01/19 07:10:18;;;;;;;22.57;13.17;;;4.10;99.90;;;;;;4876342;29;20190;-66
2024/01/19 07:12:44;;;;;;;23.35;13.18;;;4.10;99.90;;;;;;4881450;29;20568;-68
2024/01/19 07:15:10;;;;;;;21.47;12.40;;;4.10;99.90;;;;;;4900929;29;20186;-67
2024/01/19 07:17:36;;;;;;;23.57;13.07;;;4.00;99.90;;;;;;4855949;29;20195;-67
2024/01/19 07:20:04;;;;;;;21.30;13.13;;;4.10;99.90;;;;;;4877210;29;20239;-67
2024/01/19 07:22:30;;;;;;;22.77;12.65;;;4.10;99.90;;;;;;4894010;29;20238;-67
2024/01/19 07:24:56;;;;;;;23.10;13.47;;;3.70;99.90;;;;;;4899458;29;20184;-67
2024/01/19 07:27:22;;;;;;;19.00;11.73;;;4.10;99.90;;;;;;4899175;29;20465;-67
2024/01/19 07:29:48;;;;;;;27.27;12.07;;;4.10;99.90;;;;;;4856507;29;20526;-66
2024/01/19 07:32:13;;;;;;;21.43;14.33;;;4.20;99.90;;;;;;4881859;29;20196;-67
2024/01/19 07:34:39;;;;;;;25.40;13.93;;;4.10;99.90;;;;;;4854321;29;20215;-67
2024/01/19 07:37:05;;;;;;;23.93;14.10;;;4.10;99.90;;;;;;4864404;29;20202;-67
2024/01/19 07:39:31;;;;;;;24.58;13.40;;;4.10;99.90;;;;;;4890596;29;20175;-67
2024/01/19 07:41:56;;;;;;;20.57;12.80;;;4.10;99.90;;;;;;4892761;29;20203;-67
2024/01/19 07:44:22;;;;;;;24.10;14.37;;;4.10;99.90;;;;;;4888932;29;20222;-67
2024/01/19 07:46:48;;;;;;;22.80;13.20;;;4.20;99.90;;;;;;4898355;29;20187;-68
2024/01/19 07:49:20;;;;;;;21.73;12.83;;;4.10;99.90;;;;;;4900351;29;20187;-68
2024/01/19 07:51:47;;;;;;;25.92;14.05;;;4.10;99.90;;;;;;4856616;29;20198;-68
2024/01/19 07:54:13;;;;;;;26.73;13.88;;;4.20;99.90;;;;;;4899579;29;20175;-68
2024/01/19 07:56:38;;;;;;;25.00;13.07;;;4.10;99.90;;;;;;4899434;29;20242;-67
2024/01/19 07:59:04;;;;;;;23.70;14.40;;;4.10;99.90;;;;;;4886474;29;20664;-67
2024/01/19 08:01:30;;;;;;;25.53;14.47;;;4.10;99.90;;;;;;4885962;29;20180;-67
2024/01/19 08:03:56;;;;;;;25.27;15.35;;;4.00;99.90;;;;;;4865775;29;20203;-67
2024/01/19 08:06:22;;;;;;;28.80;14.37;;;4.00;99.90;;;;;;4888402;29;20184;-67
2024/01/19 08:08:47;;;;;;;29.80;15.40;;;4.10;99.90;;;;;;4880812;29;20206;-68
2024/01/19 08:11:13;;;;;;;27.97;16.30;;;4.10;99.90;;;;;;4891001;29;20191;-67
2024/01/19 08:13:39;;;;;;;28.77;18.93;;;4.10;99.90;;;;;;4887734;29;20764;-68
2024/01/19 08:16:09;;;;;;;21.65;12.93;;;4.10;99.90;;;;;;4873250;29;20637;-68
2024/01/19 08:18:34;;;;;;;29.02;15.48;;;4.20;99.90;;;;;;4898071;29;20218;-68
2024/01/19 08:21:03;;;;;;;24.37;16.63;;;4.20;99.90;;;;;;4863734;29;20681;-68
2024/01/19 08:23:30;;;;;;;25.02;14.43;;;4.20;99.90;;;;;;4860478;29;20191;-68
2024/01/19 08:25:56;;;;;;;21.02;13.68;;;4.30;99.90;;;;;;4878432;29;20190;-68
2024/01/19 08:28:22;;;;;;;29.42;17.27;;;4.30;99.90;;;;;;4893739;29;20246;-68
2024/01/19 08:30:48;;;;;;;32.42;18.58;;;4.30;99.90;;;;;;4886613;29;20239;-67
2024/01/19 08:33:14;;;;;;;27.23;19.55;;;4.30;99.90;;;;;;4868711;29;20520;-67
2024/01/19 08:35:40;;;;;;;27.53;19.13;;;4.90;99.90;;;;;;4895294;29;20239;-67
2024/01/19 08:38:06;;;;;;;23.70;17.47;;;6.40;99.90;;;;;;4856766;29;21025;-67
2024/01/19 08:40:31;;;;;;;25.33;16.73;;;7.20;99.90;;;;;;4883362;29;20287;-67
2024/01/19 08:42:57;;;;;;;24.97;15.80;;;7.90;99.90;;;;;;4911783;29;20179;-67
2024/01/19 08:45:23;;;;;;;22.00;16.10;;;8.30;99.90;;;;;;4905568;29;20179;-67
2024/01/19 08:47:50;;;;;;;24.40;16.50;;;8.80;99.90;;;;;;4905283;29;20547;-68
2024/01/19 08:50:16;;;;;;;24.90;16.03;;;9.20;99.90;;;;;;4903327;29;20581;-68
2024/01/19 08:52:42;;;;;;;21.90;15.20;;;9.60;99.90;;;;;;4905058;29;20431;-68
2024/01/19 08:55:08;;;;;;;25.00;15.70;;;10.10;99.90;;;;;;4906751;29;20795;-67
2024/01/19 08:57:34;;;;;;;23.27;16.40;;;10.40;99.90;;;;;;4889935;29;20475;-68
2024/01/19 09:00:01;;;;;;;20.67;15.73;;;10.60;99.90;;;;;;4889550;29;20765;-68
2024/01/19 09:02:27;;;;;;;20.97;15.50;;;10.90;99.90;;;;;;4890096;29;20460;-68
2024/01/19 09:04:53;;;;;;;26.13;17.10;;;10.90;99.90;;;;;;4896863;29;20915;-68
2024/01/19 09:07:19;;;;;;;22.57;14.93;;;11.10;99.90;;;;;;4909318;29;20458;-67
2024/01/19 09:09:44;;;;;;;21.00;15.47;;;11.30;99.90;;;;;;4905309;29;20640;-67
2024/01/19 09:12:10;;;;;;;19.50;16.00;;;11.50;99.90;;;;;;4898164;29;20467;-66
2024/01/19 09:14:36;;;;;;;17.77;14.60;;;11.70;99.90;;;;;;4898683;29;20178;-67
2024/01/19 09:17:02;;;;;;;18.70;16.27;;;11.80;99.90;;;;;;4877059;29;20422;-68
2024/01/19 09:19:28;;;;;;;23.80;18.97;;;11.90;99.90;;;;;;4879698;29;20176;-69
2024/01/19 09:21:54;;;;;;;19.13;16.03;;;12.00;98.20;;;;;;4884120;29;20498;-68
2024/01/19 09:24:20;;;;;;;18.97;15.97;;;12.10;97.60;;;;;;4881800;29;20180;-68
2024/01/19 09:26:45;;;;;;;21.50;16.93;;;12.20;97.60;;;;;;4896774;29;20194;-68
2024/01/19 09:29:11;;;;;;;20.10;15.00;;;12.20;96.60;;;;;;4893651;29;20463;-68
2024/01/19 09:31:44;;;;;;;20.50;16.50;;;12.20;96.10;;;;;;4880139;29;20179;-67
2024/01/19 09:34:10;;;;;;;25.60;17.23;;;12.20;95.50;;;;;;4889945;29;20183;-66
2024/01/19 09:36:38;;;;;;;29.17;19.30;;;12.20;95.60;;;;;;4887337;29;20417;-67
2024/01/19 09:39:03;;;;;;;26.17;19.00;;;12.20;96.90;;;;;;4878394;29;20413;-68
2024/01/19 09:41:39;;;;;;;19.40;15.67;;;12.20;93.90;;;;;;4884689;29;20448;-67
2024/01/19 09:44:10;;;;;;;19.30;15.70;;;12.20;96.00;;;;;;4879141;29;20181;-67
2024/01/19 09:46:41;;;;;;;22.07;15.70;;;12.30;94.30;;;;;;4884299;29;20448;-67
2024/01/19 09:49:44;;;;;;;19.50;15.90;;;12.30;93.00;;;;;;4880770;29;20429;-67
2024/01/19 09:52:20;;;;;;;19.07;16.43;;;12.40;94.30;;;;;;4890667;29;20784;-67
2024/01/19 09:54:46;;;;;;;19.40;16.73;;;12.30;93.00;;;;;;4879096;29;20968;-67
2024/01/19 09:57:12;;;;;;;18.67;14.70;;;12.40;94.40;;;;;;4884424;29;20483;-68
2024/01/19 09:59:38;;;;;;;16.30;14.00;;;12.60;93.60;;;;;;4889187;29;20445;-68
2024/01/19 10:02:06;;;;;;;15.13;13.50;;;12.70;92.80;;;;;;4877080;29;20425;-68
2024/01/19 10:04:31;;;;;;;18.93;15.20;;;12.90;92.60;;;;;;4862370;29;20982;-67
2024/01/19 10:06:57;;;;;;;19.40;14.47;;;13.00;92.00;;;;;;4878323;29;20489;-69
2024/01/19 10:09:24;;;;;;;16.00;14.30;;;13.10;90.40;;;;;;4892963;29;20194;-68
2024/01/19 10:11:54;;;;;;;18.80;14.43;;;13.30;90.50;;;;;;4897592;29;20185;-68
2024/01/19 10:14:21;;;;;;;17.47;15.63;;;13.30;90.30;;;;;;4893350;29;20494;-69
2024/01/19 10:16:56;;;;;;;19.90;15.43;;;13.40;90.30;;;;;;4892642;29;20564;-66
2024/01/19 10:19:22;;;;;;;19.43;15.73;;;13.40;89.30;;;;;;4877172;29;20423;-68
2024/01/19 10:21:50;;;;;;;18.33;14.33;;;13.50;86.80;;;;;;4875651;29;20487;-68
2024/01/19 10:24:20;;;;;;;17.97;14.47;;;13.50;87.30;;;;;;4861343;29;20424;-67
2024/01/19 10:26:55;;;;;;;17.13;13.63;;;13.60;85.20;;;;;;4890273;29;20422;-67
2024/01/19 10:29:21;;;;;;;17.57;13.93;;;13.60;85.40;;;;;;4888294;29;20524;-67
2024/01/19 10:31:49;;;;;;;19.50;14.90;;;13.70;82.50;;;;;;4893064;29;20478;-69
2024/01/19 10:34:28;;;;;;;16.87;15.07;;;13.70;83.30;;;;;;4886591;29;20427;-69
2024/01/19 10:36:54;;;;;;;262.43;157.30;;;13.40;73.70;;;;;;4868242;29;20470;-70
2024/01/19 10:39:30;;;;;;;304.40;180.83;;;12.70;72.50;;;;;;4890889;29;20452;-67
2024/01/19 10:42:07;;;;;;;25.67;18.00;;;12.00;75.80;;;;;;4861252;29;20178;-71
2024/01/19 10:44:33;;;;;;;15.90;12.83;;;11.40;75.70;;;;;;4883314;29;20531;-67
2024/01/19 10:47:00;;;;;;;17.00;15.17;;;10.80;78.00;;;;;;4897755;29;20432;-68
2024/01/19 10:49:26;;;;;;;22.10;14.77;;;10.10;79.70;;;;;;4903380;29;20469;-68
2024/01/19 10:51:53;;;;;;;19.67;14.50;;;9.70;83.80;;;;;;4899278;29;20418;-67
2024/01/19 10:54:26;;;;;;;20.67;14.30;;;9.20;85.40;;;;;;4898991;29;20474;-68
2024/01/19 10:57:04;;;;;;;18.00;14.30;;;8.80;90.00;;;;;;4902317;29;20530;-67
2024/01/19 10:59:30;;;;;;;15.20;12.77;;;8.40;90.60;;;;;;4901398;29;20431;-68
2024/01/19 11:02:01;;;;;;;21.60;13.10;;;8.00;91.50;;;;;;4909299;29;20430;-70
2024/01/19 11:04:27;;;;;;;18.80;12.60;;;7.70;92.80;;;;;;4900383;29;20318;-68
2024/01/19 11:06:52;;;;;;;18.67;12.17;;;7.40;93.90;;;;;;4911615;29;20498;-67
2024/01/19 11:09:18;;;;;;;21.10;13.57;;;7.30;95.20;;;;;;4909105;29;20626;-68
2024/01/19 11:11:54;;;;;;;17.40;12.20;;;7.10;95.50;;;;;;4907148;29;20327;-68
2024/01/19 11:14:26;;;;;;;19.10;12.80;;;7.00;96.20;;;;;;4906146;29;20449;-68
2024/01/19 11:16:54;;;;;;;17.07;11.90;;;6.80;97.00;;;;;;4907908;29;20409;-67
2024/01/19 11:19:22;;;;;;;20.10;12.77;;;6.60;97.60;;;;;;4910689;29;20428;-67
2024/01/19 11:21:48;;;;;;;18.90;12.67;;;6.50;97.80;;;;;;4907659;29;20429;-68
2024/01/19 11:24:16;;;;;;;17.03;12.77;;;6.40;98.40;;;;;;4909639;29;20437;-66
2024/01/19 11:27:22;;;;;;;18.17;12.27;;;6.40;99.90;;;;;;4906858;29;20432;-68
2024/01/19 11:29:53;;;;;;;691.30;361.80;;;6.60;99.90;;;;;;4910724;29;20803;-67
2024/01/19 11:32:19;;;;;;;48.90;27.93;;;6.60;99.90;;;;;;4887443;29;20428;-66
2024/01/19 11:34:55;;;;;;;20.13;13.97;;;6.70;99.90;;;;;;4906274;29;20520;-67
2024/01/19 11:37:40;;;;;;;20.00;14.73;;;6.80;99.50;;;;;;4906675;29;20444;-68
2024/01/19 11:40:06;;;;;;;19.70;12.80;;;6.90;99.20;;;;;;4889082;29;20438;-67
2024/01/19 11:42:38;;;;;;;18.33;11.90;;;6.80;98.80;;;;;;4911002;29;20428;-67
2024/01/19 11:45:05;;;;;;;19.57;13.77;;;6.80;98.70;;;;;;4909354;29;20482;-68
2024/01/19 11:47:37;;;;;;;18.30;12.90;;;6.70;99.20;;;;;;4907261;29;20541;-68
2024/01/19 11:50:11;;;;;;;17.07;12.50;;;6.70;99.40;;;;;;4907815;29;20434;-67
2024/01/19 11:52:41;;;;;;;21.67;14.00;;;6.70;99.70;;;;;;4910554;29;20434;-67
2024/01/19 11:55:25;;;;;;;22.60;13.13;;;6.60;99.80;;;;;;4907157;29;20570;-66
2024/01/19 11:57:55;;;;;;;23.23;14.33;;;6.50;99.90;;;;;;4890949;29;20904;-66
2024/01/19 12:00:24;;;;;;;21.37;15.00;;;6.40;99.90;;;;;;4862574;29;20434;-65
2024/01/19 12:02:55;;;;;;;19.00;12.57;;;6.30;99.90;;;;;;4858242;29;20444;-68
2024/01/19 12:05:22;;;;;;;20.47;13.20;;;6.30;99.90;;;;;;4870874;29;20490;-67
2024/01/19 12:07:48;;;;;;;21.37;13.37;;;6.10;99.90;;;;;;4891878;29;20449;-67
2024/01/19 12:10:16;;;;;;;24.43;14.27;;;6.20;99.90;;;;;;4891519;29;20438;-67
2024/01/19 12:12:42;;;;;;;20.73;13.70;;;6.20;99.90;;;;;;4885690;29;20484;-66
2024/01/19 12:15:10;;;;;;;18.03;13.13;;;6.20;99.90;;;;;;4877474;29;20563;-69
2024/01/19 12:17:40;;;;;;;23.40;14.80;;;6.20;99.90;;;;;;4896000;29;20442;-67
2024/01/19 12:20:09;;;;;;;20.60;14.20;;;6.20;99.90;;;;;;4882310;29;20491;-67
2024/01/19 12:22:38;;;;;;;19.90;13.37;;;6.10;99.90;;;;;;4899740;29;20424;-66
2024/01/19 12:25:17;;;;;;;22.27;13.70;;;6.10;99.90;;;;;;4898099;29;20451;-67
2024/01/19 12:27:43;;;;;;;20.67;13.95;;;6.00;99.90;;;;;;4879046;29;20825;-66
2024/01/19 12:30:14;;;;;;;17.63;12.80;;;6.00;99.90;;;;;;4898535;29;20185;-67
2024/01/19 12:32:41;;;;;;;19.20;13.10;;;5.90;99.90;;;;;;4899504;29;20413;-67
2024/01/19 12:35:07;;;;;;;21.13;12.83;;;5.90;99.90;;;;;;4899098;29;20436;-67